Lockport-Weather Station Historical Data
 
Daily Summary for July 12, 2020 Units:  English    Metric   Both
Daily Weekly Monthly Yearly Custom
  Current: High: Low: Average:
Temperature: 64.4 °F 68.3 °F 63.6 °F 65.7 °F
Dew Point: 62 °F 65.6 °F 60.9 °F 62.9 °F
Humidity: 92% 92% 90% 91%
Wind Speed: 1mph 1.9mph 0mph 0.8mph
Wind Gust: 4mph 6mph - -
WindWSW - - SW
Pressure: 29.73 in 29.73 in 29.67 in -
Precipitation: 0.05 in      
 
 
Tabular Data for July 12, 2020
Time Temperature Dew Point Pressure Wind Wind Speed Wind Gust Humidity Rainfall Rate (Hourly) solar
00:04 68.3 °F 65.6 °F 29.67 in SW 1.2 mph 6 mph 91% 0.00 in W/m2
00:09 68.3 °F 65.6 °F 29.68 in SSW 1.1 mph 6 mph 91% 0.01 in W/m2
00:14 68.3 °F 65.6 °F 29.68 in SW 1.5 mph 6 mph 91% 0.04 in W/m2
00:19 68.2 °F 65.5 °F 29.68 in SW 1.7 mph 5 mph 91% 0.04 in W/m2
00:24 68.2 °F 65.3 °F 29.68 in WSW 1.4 mph 4 mph 90.3% 0.05 in W/m2
00:29 68.1 °F 65.1 °F 29.67 in West 1.1 mph 3 mph 90% 0.05 in W/m2
00:34 68 °F 65 °F 29.67 in West 1.1 mph 3 mph 90% 0.05 in W/m2
00:39 68 °F 65 °F 29.67 in West 0.9 mph 3 mph 90% 0.05 in W/m2
00:44 68 °F 65 °F 29.67 in WSW 1.4 mph 3 mph 90% 0.05 in W/m2
00:49 67.9 °F 64.9 °F 29.67 in SW 1 mph 5 mph 90% 0.05 in W/m2
00:54 67.9 °F 64.9 °F 29.67 in SW 0.9 mph 6 mph 90% 0.05 in W/m2
00:59 67.9 °F 64.9 °F 29.67 in SW 0.4 mph 6 mph 90% 0.05 in W/m2
01:04 67.9 °F 64.9 °F 29.67 in SW 0.5 mph 6 mph 90% 0.05 in W/m2
01:09 67.9 °F 64.9 °F 29.68 in SW 0.7 mph 3 mph 90% 0.05 in W/m2
01:14 67.9 °F 64.9 °F 29.68 in SW 1 mph 3 mph 90% 0.02 in W/m2
01:19 67.9 °F 64.9 °F 29.68 in SW 0.9 mph 3 mph 90% 0.01 in W/m2
01:24 67.9 °F 64.9 °F 29.68 in WSW 0.6 mph 3 mph 90% 0.00 in W/m2
01:29 67.9 °F 64.9 °F 29.68 in WSW 1.5 mph 4 mph 90% 0.00 in W/m2
01:34 67.8 °F 64.8 °F 29.68 in WSW 1.1 mph 4 mph 90% 0.00 in W/m2
01:39 67.8 °F 64.8 °F 29.68 in SW 1 mph 4 mph 90% 0.00 in W/m2
01:44 67.8 °F 64.8 °F 29.68 in WSW 0.8 mph 4 mph 90% 0.00 in W/m2
01:49 67.8 °F 64.8 °F 29.68 in WSW 0.8 mph 3 mph 90% 0.00 in W/m2
01:54 67.7 °F 64.7 °F 29.68 in SW 0.8 mph 3 mph 90% 0.00 in W/m2
01:59 67.7 °F 64.7 °F 29.68 in SW 0.7 mph 3 mph 90% 0.00 in W/m2
02:04 67.7 °F 64.7 °F 29.68 in SW 0.2 mph 3 mph 90% 0.00 in W/m2
02:09 67.7 °F 64.7 °F 29.68 in SW 0.9 mph 4 mph 90% 0.00 in W/m2
02:14 67.6 °F 64.6 °F 29.68 in WSW 0.4 mph 4 mph 90% 0.00 in W/m2
02:19 67.4 °F 64.4 °F 29.68 in SW 0.7 mph 4 mph 90% 0.00 in W/m2
02:24 67.4 °F 64.4 °F 29.68 in SW 0.6 mph 3 mph 90% 0.00 in W/m2
02:29 67.2 °F 64.2 °F 29.68 in Calm   3 mph 90% 0.00 in W/m2
02:34 67.1 °F 64.1 °F 29.68 in SW 0.7 mph 3 mph 90% 0.00 in W/m2
02:39 66.9 °F 64 °F 29.67 in SW 0.9 mph 3 mph 90% 0.00 in W/m2
02:44 66.8 °F 63.8 °F 29.67 in SW 0.6 mph 3 mph 90% 0.00 in W/m2
02:49 66.7 °F 63.7 °F 29.67 in SW 0.7 mph 2 mph 90% 0.00 in W/m2
02:54 66.6 °F 63.6 °F 29.68 in SW 0.5 mph 2 mph 90% 0.00 in W/m2
02:59 66.5 °F 63.5 °F 29.67 in SW 0.2 mph 2 mph 90% 0.00 in W/m2
03:04 66.4 °F 63.4 °F 29.67 in SW 0.4 mph 2 mph 90% 0.00 in W/m2
03:09 66.3 °F 63.3 °F 29.68 in SW 0.6 mph 2 mph 90% 0.00 in W/m2
03:14 66.1 °F 63.1 °F 29.68 in SW 0.7 mph 2 mph 90% 0.00 in W/m2
03:19 66 °F 63 °F 29.67 in SW 0.4 mph 2 mph 90% 0.00 in W/m2
03:24 65.9 °F 62.9 °F 29.67 in SW 0.4 mph 2 mph 90% 0.00 in W/m2
03:29 65.8 °F 62.8 °F 29.67 in SW 0.6 mph 2 mph 90% 0.00 in W/m2
03:34 65.7 °F 62.7 °F 29.67 in SW 0.9 mph 2 mph 90% 0.00 in W/m2
03:39 65.5 °F 62.5 °F 29.67 in SW 0.9 mph 2 mph 90% 0.00 in W/m2
03:44 65.5 °F 62.5 °F 29.67 in SW 0.5 mph 2 mph 90% 0.00 in W/m2
03:49 65.3 °F 62.3 °F 29.67 in SW 0.6 mph 3 mph 90% 0.00 in W/m2
03:54 65.2 °F 62.2 °F 29.67 in WSW 1 mph 3 mph 90% 0.00 in W/m2
03:59 65.1 °F 62.1 °F 29.67 in WSW 1.1 mph 3 mph 90% 0.00 in W/m2
04:04 65.1 °F 62.1 °F 29.67 in WSW 0.6 mph 3 mph 90% 0.00 in W/m2
04:09 65 °F 62 °F 29.67 in WSW 0.6 mph 3 mph 90% 0.00 in W/m2
04:14 65 °F 62 °F 29.67 in WSW 1 mph 2 mph 90% 0.00 in W/m2
04:19 64.9 °F 61.9 °F 29.67 in WSW 0.6 mph 2 mph 90% 0.00 in W/m2
04:24 64.9 °F 62 °F 29.67 in WSW 0.6 mph 2 mph 90.3% 0.00 in W/m2
04:29 64.8 °F 62.1 °F 29.67 in WSW 0.7 mph 2 mph 90.8% 0.00 in W/m2
04:34 64.8 °F 62.1 °F 29.68 in SW 0.7 mph 2 mph 91% 0.00 in W/m2
04:39 64.8 °F 62.1 °F 29.68 in Calm   2 mph 91% 0.00 in W/m2
04:44 64.7 °F 62 °F 29.68 in SW 0.1 mph 2 mph 91% 0.00 in W/m2
04:49 64.7 °F 62 °F 29.68 in SW 0.7 mph 2 mph 91% 0.00 in W/m2
04:54 64.6 °F 61.9 °F 29.68 in SW 0.6 mph 2 mph 91% 0.00 in W/m2
04:59 64.6 °F 61.8 °F 29.68 in SW 1 mph 2 mph 90.8% 0.00 in W/m2
05:04 64.5 °F 61.8 °F 29.69 in SW 0.7 mph 2 mph 90.9% 0.00 in W/m2
05:09 64.4 °F 61.8 °F 29.69 in SW 0.2 mph 2 mph 91% 0.00 in W/m2
05:14 64.4 °F 61.7 °F 29.69 in SW 0.4 mph 2 mph 91% 0.00 in W/m2
05:19 64.3 °F 61.6 °F 29.69 in SW 1.1 mph 2 mph 91% 0.00 in W/m2
05:24 64.2 °F 61.5 °F 29.69 in SW 0.6 mph 2 mph 91% 0.00 in W/m2
05:29 64.2 °F 61.5 °F 29.69 in SW 0.9 mph 2 mph 91% 0.00 in W/m2
05:34 64.1 °F 61.4 °F 29.69 in SW 0.7 mph 2 mph 91% 0.00 in W/m2
05:39 64 °F 61.3 °F 29.69 in SW 0.8 mph 4 mph 91% 0.00 in W/m2
05:44 63.9 °F 61.2 °F 29.69 in SW 0.6 mph 4 mph 91% 0.00 in W/m2
05:49 63.9 °F 61.2 °F 29.70 in Calm   4 mph 91% 0.00 in W/m2
05:54 63.8 °F 61.1 °F 29.70 in SW 0.7 mph 2 mph 91% 0.00 in W/m2
05:59 63.8 °F 61.1 °F 29.70 in SW 0.6 mph 2 mph 91% 0.00 in W/m2
06:04 63.7 °F 61 °F 29.70 in SSW 1.1 mph 2 mph 91% 0.00 in W/m2
06:09 63.7 °F 61 °F 29.70 in SSW 0.6 mph 2 mph 91% 0.00 in W/m2
06:14 63.6 °F 60.9 °F 29.71 in SSW 1 mph 3 mph 91% 0.00 in W/m2
06:19 63.6 °F 60.9 °F 29.71 in SSW 0.9 mph 3 mph 91% 0.00 in W/m2
06:24 63.6 °F 60.9 °F 29.71 in SSW 0.8 mph 3 mph 91% 0.00 in W/m2
06:29 63.6 °F 60.9 °F 29.71 in SSW 0.6 mph 2 mph 91% 0.00 in W/m2
06:34 63.6 °F 60.9 °F 29.71 in SSW 0.8 mph 3 mph 91% 0.00 in W/m2
06:39 63.6 °F 60.9 °F 29.72 in SSW 0.1 mph 3 mph 91% 0.00 in W/m2
06:44 63.6 °F 60.9 °F 29.72 in SSW 0.1 mph 3 mph 91% 0.00 in W/m2
06:49 63.6 °F 60.9 °F 29.72 in SW 1.2 mph 4 mph 91% 0.00 in W/m2
06:54 63.6 °F 60.9 °F 29.72 in SW 1 mph 4 mph 91% 0.00 in W/m2
06:59 63.7 °F 61 °F 29.72 in SW 1.1 mph 5 mph 91% 0.00 in W/m2
07:04 63.8 °F 61.1 °F 29.72 in SW 1.1 mph 5 mph 91% 0.00 in W/m2
07:09 63.8 °F 61.1 °F 29.72 in SW 0.7 mph 5 mph 91% 0.00 in W/m2
07:14 63.9 °F 61.3 °F 29.73 in SW 0.8 mph 4 mph 91.5% 0.00 in W/m2
07:19 64 °F 61.6 °F 29.73 in SW 1.9 mph 4 mph 92% 0.00 in W/m2
07:24 64.1 °F 61.7 °F 29.73 in SW 1.5 mph 5 mph 92% 0.00 in W/m2
07:29 64.2 °F 61.8 °F 29.73 in SW 1.4 mph 5 mph 92% 0.00 in W/m2
07:34 64.3 °F 61.9 °F 29.73 in SW 1.7 mph 5 mph 92% 0.00 in W/m2
07:39 64.4 °F 62 °F 29.73 in WSW 1 mph 4 mph 92% 0.00 in W/m2
Lockport, New York, USA
Compliments of Weather Underground - 1.5 mb